sensor_id;sensor_type;location;lat;lon;timestamp;pressure;altitude;pressure_sealevel;temperature;humidity
57606;BME280;43430;48.204;11.556;2023-08-20T00:01:09;96328.84;;;21.96;100.00
57606;BME280;43430;48.204;11.556;2023-08-20T00:03:37;96331.56;;;21.91;100.00
57606;BME280;43430;48.204;11.556;2023-08-20T00:06:03;96338.72;;;21.77;100.00
57606;BME280;43430;48.204;11.556;2023-08-20T00:08:29;96338.56;;;21.63;100.00
57606;BME280;43430;48.204;11.556;2023-08-20T00:10:54;96337.53;;;21.59;100.00
57606;BME280;43430;48.204;11.556;2023-08-20T00:13:20;96340.22;;;21.59;100.00
57606;BME280;43430;48.204;11.556;2023-08-20T00:15:45;96342.59;;;21.66;100.00
57606;BME280;43430;48.204;11.556;2023-08-20T00:18:11;96332.88;;;21.70;100.00
57606;BME280;43430;48.204;11.556;2023-08-20T00:20:37;96335.28;;;21.71;100.00
57606;BME280;43430;48.204;11.556;2023-08-20T00:23:02;96344.63;;;21.74;100.00
57606;BME280;43430;48.204;11.556;2023-08-20T00:25:28;96349.84;;;21.65;100.00
57606;BME280;43430;48.204;11.556;2023-08-20T00:27:54;96355.63;;;21.48;100.00
57606;BME280;43430;48.204;11.556;2023-08-20T00:30:19;96346.25;;;21.46;100.00
57606;BME280;43430;48.204;11.556;2023-08-20T00:32:44;96352.41;;;21.46;100.00
57606;BME280;43430;48.204;11.556;2023-08-20T00:35:10;96359.66;;;21.46;100.00
57606;BME280;43430;48.204;11.556;2023-08-20T00:37:35;96356.41;;;21.49;100.00
57606;BME280;43430;48.204;11.556;2023-08-20T00:40:01;96361.72;;;21.54;100.00
57606;BME280;43430;48.204;11.556;2023-08-20T00:42:30;96355.56;;;21.53;100.00
57606;BME280;43430;48.204;11.556;2023-08-20T00:44:55;96355.31;;;21.55;100.00
57606;BME280;43430;48.204;11.556;2023-08-20T00:47:21;96353.41;;;21.55;100.00
57606;BME280;43430;48.204;11.556;2023-08-20T00:49:47;96355.31;;;21.55;100.00
57606;BME280;43430;48.204;11.556;2023-08-20T00:52:14;96358.78;;;21.55;100.00
57606;BME280;43430;48.204;11.556;2023-08-20T00:54:40;96366.59;;;21.52;100.00
57606;BME280;43430;48.204;11.556;2023-08-20T00:57:06;96370.16;;;21.42;100.00
57606;BME280;43430;48.204;11.556;2023-08-20T00:59:32;96368.00;;;21.44;100.00
57606;BME280;43430;48.204;11.556;2023-08-20T01:01:58;96368.81;;;21.45;100.00
57606;BME280;43430;48.204;11.556;2023-08-20T01:04:23;96366.38;;;21.43;100.00
57606;BME280;43430;48.204;11.556;2023-08-20T01:12:06;96371.84;;;21.28;100.00
57606;BME280;43430;48.204;11.556;2023-08-20T01:14:31;96375.88;;;21.25;100.00
57606;BME280;43430;48.204;11.556;2023-08-20T01:16:57;96375.88;;;21.25;100.00
57606;BME280;43430;48.204;11.556;2023-08-20T01:19:22;96368.41;;;21.22;100.00
57606;BME280;43430;48.204;11.556;2023-08-20T01:29:55;96373.97;;;20.92;100.00
57606;BME280;43430;48.204;11.556;2023-08-20T01:32:22;96385.81;;;20.85;100.00
57606;BME280;43430;48.204;11.556;2023-08-20T01:34:49;96391.19;;;20.80;100.00
57606;BME280;43430;48.204;11.556;2023-08-20T01:37:15;96394.66;;;20.86;100.00
57606;BME280;43430;48.204;11.556;2023-08-20T01:39:41;96388.50;;;20.85;100.00
57606;BME280;43430;48.204;11.556;2023-08-20T01:42:06;96388.50;;;20.80;100.00
57606;BME280;43430;48.204;11.556;2023-08-20T01:44:32;96396.31;;;20.77;100.00
57606;BME280;43430;48.204;11.556;2023-08-20T01:46:57;96395.00;;;20.69;100.00
57606;BME280;43430;48.204;11.556;2023-08-20T01:49:23;96393.41;;;20.68;100.00
57606;BME280;43430;48.204;11.556;2023-08-20T01:51:48;96400.63;;;20.68;100.00
57606;BME280;43430;48.204;11.556;2023-08-20T01:54:13;96398.53;;;20.59;100.00
57606;BME280;43430;48.204;11.556;2023-08-20T01:56:39;96399.38;;;20.55;100.00
57606;BME280;43430;48.204;11.556;2023-08-20T01:59:04;96399.88;;;20.47;100.00
57606;BME280;43430;48.204;11.556;2023-08-20T02:01:29;96401.81;;;20.41;100.00
57606;BME280;43430;48.204;11.556;2023-08-20T02:03:55;96403.69;;;20.41;100.00
57606;BME280;43430;48.204;11.556;2023-08-20T02:06:20;96403.41;;;20.37;100.00
57606;BME280;43430;48.204;11.556;2023-08-20T02:08:46;96410.13;;;20.34;100.00
57606;BME280;43430;48.204;11.556;2023-08-20T02:11:12;96413.34;;;20.26;100.00
57606;BME280;43430;48.204;11.556;2023-08-20T02:13:37;96410.19;;;20.14;100.00
57606;BME280;43430;48.204;11.556;2023-08-20T02:16:04;96405.38;;;20.11;100.00
57606;BME280;43430;48.204;11.556;2023-08-20T02:18:30;96409.66;;;20.17;100.00
57606;BME280;43430;48.204;11.556;2023-08-20T02:20:56;96404.81;;;20.19;100.00
57606;BME280;43430;48.204;11.556;2023-08-20T02:23:21;96410.44;;;20.18;100.00
57606;BME280;43430;48.204;11.556;2023-08-20T02:25:47;96405.88;;;20.18;100.00
57606;BME280;43430;48.204;11.556;2023-08-20T02:28:13;96408.31;;;20.14;100.00
57606;BME280;43430;48.204;11.556;2023-08-20T02:30:46;96414.75;;;20.08;100.00
57606;BME280;43430;48.204;11.556;2023-08-20T02:33:11;96409.16;;;20.00;100.00
57606;BME280;43430;48.204;11.556;2023-08-20T02:35:40;96416.38;;;19.94;100.00
57606;BME280;43430;48.204;11.556;2023-08-20T02:38:06;96412.34;;;20.02;100.00
57606;BME280;43430;48.204;11.556;2023-08-20T02:40:31;96410.50;;;19.97;100.00
57606;BME280;43430;48.204;11.556;2023-08-20T02:42:57;96414.25;;;19.96;100.00
57606;BME280;43430;48.204;11.556;2023-08-20T02:45:23;96417.19;;;19.89;100.00
57606;BME280;43430;48.204;11.556;2023-08-20T02:47:49;96420.69;;;19.80;100.00
57606;BME280;43430;48.204;11.556;2023-08-20T02:50:15;96422.56;;;19.74;100.00
57606;BME280;43430;48.204;11.556;2023-08-20T02:52:42;96422.28;;;19.71;100.00
57606;BME280;43430;48.204;11.556;2023-08-20T02:55:07;96422.03;;;19.67;100.00
57606;BME280;43430;48.204;11.556;2023-08-20T02:57:33;96423.63;;;19.68;100.00
57606;BME280;43430;48.204;11.556;2023-08-20T02:59:58;96418.84;;;19.65;100.00
57606;BME280;43430;48.204;11.556;2023-08-20T03:02:24;96420.13;;;19.62;100.00
57606;BME280;43430;48.204;11.556;2023-08-20T03:04:49;96423.63;;;19.63;100.00
57606;BME280;43430;48.204;11.556;2023-08-20T03:07:14;96424.94;;;19.60;100.00
57606;BME280;43430;48.204;11.556;2023-08-20T03:09:43;96425.19;;;19.54;100.00
57606;BME280;43430;48.204;11.556;2023-08-20T03:12:08;96431.09;;;19.45;100.00
57606;BME280;43430;48.204;11.556;2023-08-20T03:14:33;96441.78;;;19.45;100.00
57606;BME280;43430;48.204;11.556;2023-08-20T03:16:59;96439.38;;;19.44;100.00
57606;BME280;43430;48.204;11.556;2023-08-20T03:19:24;96446.88;;;19.47;100.00
57606;BME280;43430;48.204;11.556;2023-08-20T03:21:50;96442.34;;;19.53;100.00
57606;BME280;43430;48.204;11.556;2023-08-20T03:24:15;96445.81;;;19.48;100.00
57606;BME280;43430;48.204;11.556;2023-08-20T03:26:40;96449.56;;;19.52;100.00
57606;BME280;43430;48.204;11.556;2023-08-20T03:29:06;96450.63;;;19.56;100.00
57606;BME280;43430;48.204;11.556;2023-08-20T03:31:31;96455.44;;;19.59;100.00
57606;BME280;43430;48.204;11.556;2023-08-20T03:33:57;96451.75;;;19.65;100.00
57606;BME280;43430;48.204;11.556;2023-08-20T03:36:22;96451.19;;;19.63;100.00
57606;BME280;43430;48.204;11.556;2023-08-20T03:38:47;96454.66;;;19.64;100.00
57606;BME280;43430;48.204;11.556;2023-08-20T03:41:13;96455.69;;;19.58;100.00
57606;BME280;43430;48.204;11.556;2023-08-20T03:43:38;96463.19;;;19.45;100.00
57606;BME280;43430;48.204;11.556;2023-08-20T03:46:03;96463.44;;;19.39;100.00
57606;BME280;43430;48.204;11.556;2023-08-20T03:48:29;96458.38;;;19.42;100.00
57606;BME280;43430;48.204;11.556;2023-08-20T03:50:55;96469.59;;;19.50;100.00
57606;BME280;43430;48.204;11.556;2023-08-20T03:53:21;96465.59;;;19.47;100.00
57606;BME280;43430;48.204;11.556;2023-08-20T03:55:49;96469.06;;;19.42;100.00
57606;BME280;43430;48.204;11.556;2023-08-20T03:58:15;96470.13;;;19.36;100.00
57606;BME280;43430;48.204;11.556;2023-08-20T04:00:41;96476.00;;;19.33;100.00
57606;BME280;43430;48.204;11.556;2023-08-20T04:03:06;96464.78;;;19.31;100.00
57606;BME280;43430;48.204;11.556;2023-08-20T04:05:38;96467.44;;;19.26;100.00
57606;BME280;43430;48.204;11.556;2023-08-20T04:08:05;96479.44;;;19.18;100.00
57606;BME280;43430;48.204;11.556;2023-08-20T04:10:31;96477.31;;;19.15;100.00
57606;BME280;43430;48.204;11.556;2023-08-20T04:12:56;96484.53;;;19.10;100.00
57606;BME280;43430;48.204;11.556;2023-08-20T04:15:22;96488.75;;;19.01;100.00
57606;BME280;43430;48.204;11.556;2023-08-20T04:17:47;96489.03;;;19.04;100.00
57606;BME280;43430;48.204;11.556;2023-08-20T04:20:14;96491.44;;;19.06;100.00
57606;BME280;43430;48.204;11.556;2023-08-20T04:22:39;96487.44;;;19.08;100.00
57606;BME280;43430;48.204;11.556;2023-08-20T04:25:06;96491.19;;;19.12;100.00
57606;BME280;43430;48.204;11.556;2023-08-20T04:27:32;96492.53;;;19.10;100.00
57606;BME280;43430;48.204;11.556;2023-08-20T04:29:57;96491.19;;;19.07;100.00
57606;BME280;43430;48.204;11.556;2023-08-20T04:32:22;96495.47;;;19.08;100.00
57606;BME280;43430;48.204;11.556;2023-08-20T04:34:48;96499.22;;;19.12;100.00
57606;BME280;43430;48.204;11.556;2023-08-20T04:37:15;96498.16;;;19.13;100.00
57606;BME280;43430;48.204;11.556;2023-08-20T04:39:40;96497.63;;;19.16;100.00
57606;BME280;43430;48.204;11.556;2023-08-20T04:42:06;96498.72;;;19.20;100.00
57606;BME280;43430;48.204;11.556;2023-08-20T04:44:31;96488.03;;;19.26;100.00
57606;BME280;43430;48.204;11.556;2023-08-20T04:46:56;96487.75;;;19.22;100.00
57606;BME280;43430;48.204;11.556;2023-08-20T04:49:22;96492.53;;;19.15;100.00
57606;BME280;43430;48.204;11.556;2023-08-20T04:51:47;96494.41;;;19.14;100.00
57606;BME280;43430;48.204;11.556;2023-08-20T04:54:12;96499.53;;;19.21;100.00
57606;BME280;43430;48.204;11.556;2023-08-20T04:56:38;96500.31;;;19.27;100.00
57606;BME280;43430;48.204;11.556;2023-08-20T04:59:03;96497.91;;;19.25;100.00
57606;BME280;43430;48.204;11.556;2023-08-20T05:01:28;96499.25;;;19.23;100.00
57606;BME280;43430;48.204;11.556;2023-08-20T05:03:54;96501.13;;;19.22;100.00
57606;BME280;43430;48.204;11.556;2023-08-20T05:06:19;96497.91;;;19.25;100.00
57606;BME280;43430;48.204;11.556;2023-08-20T05:08:44;96490.44;;;19.32;100.00
57606;BME280;43430;48.204;11.556;2023-08-20T05:11:10;96489.66;;;19.32;100.00
57606;BME280;43430;48.204;11.556;2023-08-20T05:13:35;96484.31;;;19.32;100.00
57606;BME280;43430;48.204;11.556;2023-08-20T05:16:00;96496.34;;;19.39;100.00
57606;BME280;43430;48.204;11.556;2023-08-20T05:18:26;96492.34;;;19.47;100.00
57606;BME280;43430;48.204;11.556;2023-08-20T05:20:52;96494.75;;;19.54;100.00
57606;BME280;43430;48.204;11.556;2023-08-20T05:23:17;96485.44;;;19.66;100.00
57606;BME280;43430;48.204;11.556;2023-08-20T05:25:42;96474.47;;;19.78;100.00
57606;BME280;43430;48.204;11.556;2023-08-20T05:28:08;96473.91;;;19.91;100.00
57606;BME280;43430;48.204;11.556;2023-08-20T05:30:33;96483.00;;;20.06;100.00
57606;BME280;43430;48.204;11.556;2023-08-20T05:32:59;96472.03;;;20.07;100.00
57606;BME280;43430;48.204;11.556;2023-08-20T05:35:24;96467.22;;;20.14;100.00
57606;BME280;43430;48.204;11.556;2023-08-20T05:37:50;96470.97;;;20.24;100.00
57606;BME280;43430;48.204;11.556;2023-08-20T05:40:15;96460.50;;;20.27;100.00
57606;BME280;43430;48.204;11.556;2023-08-20T05:42:41;96461.25;;;20.43;100.00
57606;BME280;43430;48.204;11.556;2023-08-20T05:45:06;96451.06;;;20.55;100.00
57606;BME280;43430;48.204;11.556;2023-08-20T05:47:32;96451.78;;;20.76;100.00
57606;BME280;43430;48.204;11.556;2023-08-20T05:49:57;96445.00;;;20.99;100.00
57606;BME280;43430;48.204;11.556;2023-08-20T05:52:22;96445.38;;;21.22;100.00
57606;BME280;43430;48.204;11.556;2023-08-20T05:54:48;96434.31;;;21.39;100.00
57606;BME280;43430;48.204;11.556;2023-08-20T05:57:13;96433.69;;;21.52;100.00
57606;BME280;43430;48.204;11.556;2023-08-20T05:59:39;96416.69;;;21.62;100.00
57606;BME280;43430;48.204;11.556;2023-08-20T06:02:04;96413.94;;;21.72;100.00
57606;BME280;43430;48.204;11.556;2023-08-20T06:04:30;96415.69;;;21.81;100.00
57606;BME280;43430;48.204;11.556;2023-08-20T06:06:55;96409.44;;;21.91;100.00
57606;BME280;43430;48.204;11.556;2023-08-20T06:09:20;96413.91;;;22.01;100.00
57606;BME280;43430;48.204;11.556;2023-08-20T06:11:46;96408.13;;;22.18;100.00
57606;BME280;43430;48.204;11.556;2023-08-20T06:14:11;96412.81;;;22.31;100.00
57606;BME280;43430;48.204;11.556;2023-08-20T06:16:37;96404.91;;;22.40;100.00
57606;BME280;43430;48.204;11.556;2023-08-20T06:19:02;96404.88;;;22.45;100.00
57606;BME280;43430;48.204;11.556;2023-08-20T06:21:29;96400.75;;;22.52;100.00
57606;BME280;43430;48.204;11.556;2023-08-20T06:23:54;96402.50;;;22.62;100.00
57606;BME280;43430;48.204;11.556;2023-08-20T06:26:20;96403.84;;;22.84;100.00
57606;BME280;43430;48.204;11.556;2023-08-20T06:28:45;96401.06;;;22.94;100.00
57606;BME280;43430;48.204;11.556;2023-08-20T06:31:10;96403.59;;;23.04;100.00
57606;BME280;43430;48.204;11.556;2023-08-20T06:33:36;96408.31;;;23.12;100.00
57606;BME280;43430;48.204;11.556;2023-08-20T06:36:01;96407.66;;;23.20;100.00
57606;BME280;43430;48.204;11.556;2023-08-20T06:38:27;96414.66;;;23.21;100.00
57606;BME280;43430;48.204;11.556;2023-08-20T06:40:52;96408.47;;;23.21;100.00
57606;BME280;43430;48.204;11.556;2023-08-20T06:43:18;96413.13;;;23.15;100.00
57606;BME280;43430;48.204;11.556;2023-08-20T06:45:43;96410.16;;;23.17;100.00
57606;BME280;43430;48.204;11.556;2023-08-20T06:48:09;96410.72;;;23.14;100.00
57606;BME280;43430;48.204;11.556;2023-08-20T06:50:34;96407.00;;;23.29;100.00
57606;BME280;43430;48.204;11.556;2023-08-20T06:52:59;96400.13;;;23.55;100.00
57606;BME280;43430;48.204;11.556;2023-08-20T06:55:25;96406.47;;;23.64;100.00
57606;BME280;43430;48.204;11.556;2023-08-20T06:57:50;96407.78;;;23.48;100.00
57606;BME280;43430;48.204;11.556;2023-08-20T07:00:16;96408.63;;;23.62;100.00
57606;BME280;43430;48.204;11.556;2023-08-20T07:02:41;96408.81;;;23.71;100.00
57606;BME280;43430;48.204;11.556;2023-08-20T07:05:06;96405.81;;;23.73;100.00
57606;BME280;43430;48.204;11.556;2023-08-20T07:07:34;96400.22;;;23.69;100.00
57606;BME280;43430;48.204;11.556;2023-08-20T07:10:00;96400.34;;;23.91;100.00
57606;BME280;43430;48.204;11.556;2023-08-20T07:12:25;96404.19;;;24.18;100.00
57606;BME280;43430;48.204;11.556;2023-08-20T07:14:50;96407.28;;;24.39;100.00
57606;BME280;43430;48.204;11.556;2023-08-20T07:17:19;96407.81;;;24.41;100.00
57606;BME280;43430;48.204;11.556;2023-08-20T07:19:44;96410.91;;;24.48;100.00
57606;BME280;43430;48.204;11.556;2023-08-20T07:22:10;96409.81;;;24.63;100.00
57606;BME280;43430;48.204;11.556;2023-08-20T07:24:35;96409.59;;;24.73;100.00
57606;BME280;43430;48.204;11.556;2023-08-20T07:27:01;96415.56;;;24.84;100.00
57606;BME280;43430;48.204;11.556;2023-08-20T07:29:29;96409.88;;;24.85;100.00
57606;BME280;43430;48.204;11.556;2023-08-20T07:31:55;96421.34;;;24.91;100.00
57606;BME280;43430;48.204;11.556;2023-08-20T07:34:21;96421.38;;;24.77;100.00
57606;BME280;43430;48.204;11.556;2023-08-20T07:36:46;96416.59;;;24.88;100.00
57606;BME280;43430;48.204;11.556;2023-08-20T07:39:12;96422.56;;;25.13;100.00
57606;BME280;43430;48.204;11.556;2023-08-20T07:41:37;96427.03;;;25.17;100.00
57606;BME280;43430;48.204;11.556;2023-08-20T07:44:03;96432.50;;;25.26;100.00
57606;BME280;43430;48.204;11.556;2023-08-20T07:46:29;96428.88;;;25.30;100.00
57606;BME280;43430;48.204;11.556;2023-08-20T07:48:54;96436.22;;;25.02;100.00
57606;BME280;43430;48.204;11.556;2023-08-20T07:51:19;96432.50;;;25.26;100.00
57606;BME280;43430;48.204;11.556;2023-08-20T07:53:45;96437.66;;;25.36;100.00
57606;BME280;43430;48.204;11.556;2023-08-20T07:56:10;96434.97;;;25.58;100.00
57606;BME280;43430;48.204;11.556;2023-08-20T07:58:35;96427.94;;;25.71;100.00
57606;BME280;43430;48.204;11.556;2023-08-20T08:01:01;96432.50;;;25.85;100.00
57606;BME280;43430;48.204;11.556;2023-08-20T08:03:26;96439.78;;;25.84;100.00
57606;BME280;43430;48.204;11.556;2023-08-20T08:05:53;96434.09;;;25.86;100.00
57606;BME280;43430;48.204;11.556;2023-08-20T08:08:19;96432.31;;;25.81;100.00
57606;BME280;43430;48.204;11.556;2023-08-20T08:10:45;96433.03;;;25.95;100.00
57606;BME280;43430;48.204;11.556;2023-08-20T08:13:12;96427.19;;;26.02;100.00
57606;BME280;43430;48.204;11.556;2023-08-20T08:15:38;96430.44;;;26.13;100.00
57606;BME280;43430;48.204;11.556;2023-08-20T08:18:03;96430.25;;;26.09;100.00
57606;BME280;43430;48.204;11.556;2023-08-20T08:20:29;96432.19;;;26.17;100.00
57606;BME280;43430;48.204;11.556;2023-08-20T08:22:54;96430.63;;;26.25;100.00
57606;BME280;43430;48.204;11.556;2023-08-20T08:25:20;96429.97;;;26.19;100.00
57606;BME280;43430;48.204;11.556;2023-08-20T08:27:45;96427.97;;;26.34;100.00
57606;BME280;43430;48.204;11.556;2023-08-20T08:30:11;96427.53;;;26.40;100.00
57606;BME280;43430;48.204;11.556;2023-08-20T08:32:36;96432.78;;;26.45;100.00
57606;BME280;43430;48.204;11.556;2023-08-20T08:35:02;96427.63;;;26.58;100.00
57606;BME280;43430;48.204;11.556;2023-08-20T08:37:27;96426.25;;;26.78;100.00
57606;BME280;43430;48.204;11.556;2023-08-20T08:39:53;96425.94;;;26.88;100.00
57606;BME280;43430;48.204;11.556;2023-08-20T08:42:20;96432.94;;;26.89;100.00
57606;BME280;43430;48.204;11.556;2023-08-20T08:44:48;96434.25;;;26.91;100.00
57606;BME280;43430;48.204;11.556;2023-08-20T08:47:14;96426.16;;;27.09;100.00
57606;BME280;43430;48.204;11.556;2023-08-20T08:49:40;96425.06;;;27.27;100.00
57606;BME280;43430;48.204;11.556;2023-08-20T08:52:06;96426.34;;;27.38;100.00
57606;BME280;43430;48.204;11.556;2023-08-20T08:54:33;96422.84;;;27.47;100.00
57606;BME280;43430;48.204;11.556;2023-08-20T08:56:59;96419.31;;;27.63;100.00
57606;BME280;43430;48.204;11.556;2023-08-20T08:59:24;96412.63;;;27.78;100.00
57606;BME280;43430;48.204;11.556;2023-08-20T09:01:49;96417.06;;;27.74;100.00
57606;BME280;43430;48.204;11.556;2023-08-20T09:04:15;96413.91;;;27.81;100.00
57606;BME280;43430;48.204;11.556;2023-08-20T09:06:47;96415.16;;;27.83;100.00
57606;BME280;43430;48.204;11.556;2023-08-20T09:09:14;96425.81;;;27.97;100.00
57606;BME280;43430;48.204;11.556;2023-08-20T09:11:39;96420.84;;;28.08;100.00
57606;BME280;43430;48.204;11.556;2023-08-20T09:14:05;96419.59;;;28.05;100.00
57606;BME280;43430;48.204;11.556;2023-08-20T09:16:31;96423.72;;;28.11;100.00
57606;BME280;43430;48.204;11.556;2023-08-20T09:18:59;96417.78;;;28.18;100.00
57606;BME280;43430;48.204;11.556;2023-08-20T09:21:27;96422.25;;;28.14;100.00
57606;BME280;43430;48.204;11.556;2023-08-20T09:23:56;96422.56;;;28.21;100.00
57606;BME280;43430;48.204;11.556;2023-08-20T09:26:25;96424.31;;;28.26;100.00
57606;BME280;43430;48.204;11.556;2023-08-20T09:28:54;96423.00;;;28.41;100.00
57606;BME280;43430;48.204;11.556;2023-08-20T09:31:20;96421.69;;;28.38;100.00
57606;BME280;43430;48.204;11.556;2023-08-20T09:33:52;96427.75;;;28.35;100.00
57606;BME280;43430;48.204;11.556;2023-08-20T09:36:18;96432.09;;;28.36;100.00
57606;BME280;43430;48.204;11.556;2023-08-20T09:38:43;96438.34;;;28.66;100.00
57606;BME280;43430;48.204;11.556;2023-08-20T09:41:09;96442.47;;;28.72;100.00
57606;BME280;43430;48.204;11.556;2023-08-20T09:43:38;96436.78;;;28.65;100.00
57606;BME280;43430;48.204;11.556;2023-08-20T09:46:05;96435.13;;;28.73;100.00
57606;BME280;43430;48.204;11.556;2023-08-20T09:48:34;96450.06;;;28.88;98.39
57606;BME280;43430;48.204;11.556;2023-08-20T09:51:10;96446.88;;;28.85;98.74
57606;BME280;43430;48.204;11.556;2023-08-20T09:53:46;96448.47;;;28.86;100.00
57606;BME280;43430;48.204;11.556;2023-08-20T09:56:30;96442.59;;;28.84;100.00
57606;BME280;43430;48.204;11.556;2023-08-20T09:58:59;96448.47;;;28.86;100.00
57606;BME280;43430;48.204;11.556;2023-08-20T10:01:26;96450.72;;;28.84;99.08
57606;BME280;43430;48.204;11.556;2023-08-20T10:03:52;96447.41;;;28.79;100.00
57606;BME280;43430;48.204;11.556;2023-08-20T10:06:18;96443.69;;;28.83;100.00
57606;BME280;43430;48.204;11.556;2023-08-20T10:08:44;96439.50;;;28.95;100.00
57606;BME280;43430;48.204;11.556;2023-08-20T10:11:11;96441.59;;;29.19;98.10
57606;BME280;43430;48.204;11.556;2023-08-20T10:13:37;96442.25;;;29.16;100.00
57606;BME280;43430;48.204;11.556;2023-08-20T10:16:02;96440.88;;;29.30;96.55
57606;BME280;43430;48.204;11.556;2023-08-20T10:18:28;96447.16;;;29.22;100.00
57606;BME280;43430;48.204;11.556;2023-08-20T10:20:57;96440.34;;;29.37;100.00
57606;BME280;43430;48.204;11.556;2023-08-20T10:23:23;96435.56;;;29.34;100.00
57606;BME280;43430;48.204;11.556;2023-08-20T10:25:52;96442.03;;;29.42;96.77
57606;BME280;43430;48.204;11.556;2023-08-20T10:28:26;96443.44;;;29.27;99.73
57606;BME280;43430;48.204;11.556;2023-08-20T10:33:28;96443.00;;;29.46;100.00
57606;BME280;43430;48.204;11.556;2023-08-20T10:35:53;96434.16;;;29.49;100.00
57606;BME280;43430;48.204;11.556;2023-08-20T10:38:19;96431.78;;;29.68;97.56
57606;BME280;43430;48.204;11.556;2023-08-20T10:40:55;96437.03;;;29.73;94.75
57606;BME280;43430;48.204;11.556;2023-08-20T10:43:40;96431.19;;;29.84;98.32
57606;BME280;43430;48.204;11.556;2023-08-20T10:46:16;96435.13;;;29.86;97.54
57606;BME280;43430;48.204;11.556;2023-08-20T10:48:47;96430.72;;;29.82;99.48
57606;BME280;43430;48.204;11.556;2023-08-20T10:51:14;96431.69;;;29.98;98.54
57606;BME280;43430;48.204;11.556;2023-08-20T10:53:42;96429.63;;;30.07;94.05
57606;BME280;43430;48.204;11.556;2023-08-20T10:56:10;96432.13;;;30.00;94.92
57606;BME280;43430;48.204;11.556;2023-08-20T10:58:38;96428.94;;;29.98;93.74
57606;BME280;43430;48.204;11.556;2023-08-20T11:01:22;96429.75;;;29.98;95.86
57606;BME280;43430;48.204;11.556;2023-08-20T11:03:49;96427.56;;;29.92;97.97
57606;BME280;43430;48.204;11.556;2023-08-20T11:06:15;96436.56;;;30.04;100.00
57606;BME280;43430;48.204;11.556;2023-08-20T11:08:42;96425.69;;;30.17;100.00
57606;BME280;43430;48.204;11.556;2023-08-20T11:11:08;96423.31;;;30.15;100.00
57606;BME280;43430;48.204;11.556;2023-08-20T11:13:34;96425.13;;;30.11;99.47
57606;BME280;43430;48.204;11.556;2023-08-20T11:16:01;96425.53;;;29.89;100.00
57606;BME280;43430;48.204;11.556;2023-08-20T11:18:28;96423.72;;;29.93;94.94
57606;BME280;43430;48.204;11.556;2023-08-20T11:20:57;96414.41;;;29.94;99.82
57606;BME280;43430;48.204;11.556;2023-08-20T11:23:22;96421.53;;;30.19;100.00
57606;BME280;43430;48.204;11.556;2023-08-20T11:25:47;96406.59;;;30.25;92.96
57606;BME280;43430;48.204;11.556;2023-08-20T11:28:13;96415.09;;;30.36;96.97
57606;BME280;43430;48.204;11.556;2023-08-20T11:30:38;96407.28;;;30.35;96.92
57606;BME280;43430;48.204;11.556;2023-08-20T11:33:04;96408.78;;;30.57;95.84
57606;BME280;43430;48.204;11.556;2023-08-20T11:35:31;96417.63;;;30.54;90.40
57606;BME280;43430;48.204;11.556;2023-08-20T11:37:56;96405.59;;;30.55;91.80
57606;BME280;43430;48.204;11.556;2023-08-20T11:40:22;96404.69;;;30.50;93.56
57606;BME280;43430;48.204;11.556;2023-08-20T11:42:48;96405.81;;;30.37;92.50
57606;BME280;43430;48.204;11.556;2023-08-20T11:45:13;96407.03;;;30.52;86.77
57606;BME280;43430;48.204;11.556;2023-08-20T11:47:40;96410.69;;;30.44;86.91
57606;BME280;43430;48.204;11.556;2023-08-20T11:50:06;96403.53;;;30.51;86.64
57606;BME280;43430;48.204;11.556;2023-08-20T11:52:33;96406.25;;;30.51;86.52
57606;BME280;43430;48.204;11.556;2023-08-20T11:54:59;96410.94;;;30.63;86.35
57606;BME280;43430;48.204;11.556;2023-08-20T11:57:25;96407.84;;;30.65;84.64
57606;BME280;43430;48.204;11.556;2023-08-20T11:59:50;96407.41;;;30.63;86.63
57606;BME280;43430;48.204;11.556;2023-08-20T12:02:24;96409.88;;;30.56;86.46
57606;BME280;43430;48.204;11.556;2023-08-20T12:04:50;96406.72;;;30.66;84.38
57606;BME280;43430;48.204;11.556;2023-08-20T12:07:16;96402.88;;;30.67;85.51
57606;BME280;43430;48.204;11.556;2023-08-20T12:09:41;96396.31;;;30.80;84.37
57606;BME280;43430;48.204;11.556;2023-08-20T12:12:07;96391.56;;;30.77;84.59
57606;BME280;43430;48.204;11.556;2023-08-20T12:14:36;96395.03;;;30.90;84.46
57606;BME280;43430;48.204;11.556;2023-08-20T12:17:02;96395.91;;;31.06;75.44
57606;BME280;43430;48.204;11.556;2023-08-20T12:19:28;96397.28;;;31.12;74.31
57606;BME280;43430;48.204;11.556;2023-08-20T12:21:54;96389.22;;;31.04;74.23
57606;BME280;43430;48.204;11.556;2023-08-20T12:24:19;96390.66;;;31.13;75.93
57606;BME280;43430;48.204;11.556;2023-08-20T12:26:45;96386.56;;;31.19;76.54
57606;BME280;43430;48.204;11.556;2023-08-20T12:29:11;96393.09;;;31.03;78.23
57606;BME280;43430;48.204;11.556;2023-08-20T12:31:38;96394.13;;;30.98;76.24
57606;BME280;43430;48.204;11.556;2023-08-20T12:34:03;96387.06;;;30.97;78.88
57606;BME280;43430;48.204;11.556;2023-08-20T12:36:29;96386.59;;;31.07;75.32
57606;BME280;43430;48.204;11.556;2023-08-20T12:38:55;96380.72;;;31.05;74.26
57606;BME280;43430;48.204;11.556;2023-08-20T12:41:21;96385.69;;;31.15;75.19
57606;BME280;43430;48.204;11.556;2023-08-20T12:43:46;96380.91;;;31.12;76.68
57606;BME280;43430;48.204;11.556;2023-08-20T12:46:12;96381.78;;;31.29;74.19
57606;BME280;43430;48.204;11.556;2023-08-20T12:48:38;96380.44;;;31.23;75.36
57606;BME280;43430;48.204;11.556;2023-08-20T12:51:04;96370.91;;;31.16;74.72
57606;BME280;43430;48.204;11.556;2023-08-20T12:53:30;96368.56;;;31.15;77.11